TimeEDT,TemperatureF,Dew PointF,Humidity,Sea Level PressureIn,VisibilityMPH,Wind Direction,Wind SpeedMPH,Gust SpeedMPH,PrecipitationIn,Events,Conditions,WindDirDegrees,DateUTC
12:51 AM,27.0,21.0,78,29.87,10.0,Calm,Calm,-,N/A,,Clear,0,2013-04-05 04:51:00
1:51 AM,28.0,21.0,75,29.86,10.0,Calm,Calm,-,N/A,,Clear,0,2013-04-05 05:51:00
2:51 AM,28.9,19.0,67,29.83,10.0,Calm,Calm,-,N/A,,Clear,0,2013-04-05 06:51:00
3:51 AM,32.0,18.0,56,29.81,10.0,Calm,Calm,-,N/A,,Clear,0,2013-04-05 07:51:00
4:51 AM,27.0,18.0,69,29.82,10.0,Calm,Calm,-,N/A,,Clear,0,2013-04-05 08:51:00
5:51 AM,25.0,19.0,78,29.82,10.0,Calm,Calm,-,N/A,,Scattered Clouds,0,2013-04-05 09:51:00
6:51 AM,32.0,16.0,52,29.80,10.0,SW,5.8,-,N/A,,Overcast,220,2013-04-05 10:51:00
7:51 AM,34.0,15.1,46,29.81,10.0,WSW,5.8,-,N/A,,Overcast,240,2013-04-05 11:51:00
8:37 AM,33.8,19.4,56,29.78,7.0,West,10.4,17.3,0.00,Snow,Light Snow,260,2013-04-05 12:37:00
8:51 AM,33.1,21.9,64,29.83,8.0,WSW,8.1,17.3,0.00,Snow,Light Snow,240,2013-04-05 12:51:00
9:36 AM,32.0,24.8,75,29.78,10.0,West,5.8,-,0.00,,Overcast,260,2013-04-05 13:36:00
9:51 AM,32.0,26.1,79,29.84,10.0,West,9.2,-,0.00,,Overcast,270,2013-04-05 13:51:00
10:51 AM,32.0,27.0,82,29.85,4.0,West,4.6,-,0.00,Snow,Light Snow,280,2013-04-05 14:51:00
11:08 AM,32.0,26.6,80,29.79,2.0,West,8.1,-,0.00,Snow,Light Snow,280,2013-04-05 15:08:00
11:22 AM,33.8,28.4,81,29.79,4.0,Variable,5.8,-,0.00,Snow,Light Snow,0,2013-04-05 15:22:00
11:38 AM,33.8,28.4,81,29.79,7.0,NW,6.9,-,0.00,,Overcast,310,2013-04-05 15:38:00
11:47 AM,33.8,26.6,75,29.79,6.0,West,6.9,-,0.00,Snow,Light Snow,270,2013-04-05 15:47:00
11:51 AM,33.1,26.1,75,29.85,4.0,West,5.8,-,0.00,Snow,Light Snow,270,2013-04-05 15:51:00
12:51 PM,34.0,26.1,73,29.85,4.0,Variable,6.9,-,0.00,Snow,Light Snow,0,2013-04-05 16:51:00
1:34 PM,33.8,26.6,75,29.79,1.8,WNW,11.5,19.6,0.00,Snow,Light Snow,290,2013-04-05 17:34:00
1:37 PM,33.8,26.6,75,29.79,0.8,Variable,5.8,19.6,0.00,Snow,Light Snow,0,2013-04-05 17:37:00
1:51 PM,34.0,28.9,82,29.84,1.5,Variable,3.5,-,0.00,Snow,Light Snow,0,2013-04-05 17:51:00
1:53 PM,35.6,30.2,81,29.79,3.0,Variable,3.5,-,0.00,Snow,Light Snow,0,2013-04-05 17:53:00
2:03 PM,33.8,26.6,75,29.79,0.8,WNW,10.4,19.6,0.01,Snow,Light Snow,290,2013-04-05 18:03:00
2:06 PM,30.2,26.6,86,29.79,0.2,WNW,8.1,19.6,0.01,Fog-Snow,Snow,290,2013-04-05 18:06:00
2:16 PM,30.2,28.4,93,29.79,0.5,Variable,3.5,-,0.01,Fog-Snow,Light Snow,0,2013-04-05 18:16:00
2:24 PM,32.0,26.6,80,29.79,2.0,Variable,6.9,-,0.01,Snow,Light Snow,0,2013-04-05 18:24:00
2:28 PM,32.0,26.6,80,29.79,3.0,Variable,6.9,-,0.01,Snow,Light Snow,0,2013-04-05 18:28:00
2:51 PM,34.0,26.1,73,29.84,7.0,Variable,6.9,-,0.01,,Overcast,0,2013-04-05 18:51:00
3:09 PM,33.8,24.8,70,29.79,2.5,NW,8.1,16.1,0.00,Snow,Light Snow,310,2013-04-05 19:09:00
3:18 PM,33.8,26.6,75,29.79,3.0,Variable,5.8,-,0.00,Snow,Light Snow,0,2013-04-05 19:18:00
3:51 PM,33.1,24.1,70,29.84,8.0,NW,10.4,18.4,0.00,,Overcast,310,2013-04-05 19:51:00
4:36 PM,33.8,24.8,70,29.80,7.0,Variable,5.8,-,0.00,,Overcast,0,2013-04-05 20:36:00
4:44 PM,33.8,23.0,65,29.80,10.0,Variable,3.5,-,0.00,,Overcast,0,2013-04-05 20:44:00
4:51 PM,33.1,21.9,64,29.86,10.0,Variable,5.8,-,0.00,,Overcast,0,2013-04-05 20:51:00
5:51 PM,30.9,21.0,67,29.88,10.0,Variable,5.8,-,N/A,,Overcast,0,2013-04-05 21:51:00
6:51 PM,30.9,15.1,52,29.89,10.0,NW,10.4,19.6,N/A,,Overcast,310,2013-04-05 22:51:00
7:51 PM,28.9,16.0,58,29.91,10.0,Variable,6.9,-,N/A,,Overcast,0,2013-04-05 23:51:00
8:51 PM,28.0,16.0,61,29.95,10.0,Variable,3.5,-,N/A,,Overcast,0,2013-04-06 00:51:00
9:51 PM,26.1,12.0,55,29.98,10.0,Variable,5.8,19.6,N/A,,Overcast,0,2013-04-06 01:51:00
10:51 PM,25.0,10.9,55,29.99,10.0,NW,9.2,-,N/A,,Overcast,320,2013-04-06 02:51:00
11:51 PM,23.0,8.1,53,30.01,10.0,NW,8.1,-,N/A,,Mostly Cloudy,310,2013-04-06 03:51:00